SSEC Globe Logo

Space Science and Engineering Center

Regional Terminal Forecasts

TAFMSN TAF AMD KMSN 221424Z 2214/2312 29012KT P6SM SCT015
     BKN025 FM221500 30011G20KT P6SM SCT030 SCT250 FM230100
     30007KT P6SM SKC=
KMKE 221130Z 2212/2318 26009KT P6SM SCT030 BKN150 TEMPO
     2213/2214 BKN030 FM221400 29010G18KT P6SM SCT015 BKN030
     FM221600 30012G21KT P6SM SCT030 SCT250 FM230300 29010KT
     P6SM SKC FM231400 32008KT P6SM FEW250=
KGRB 221334Z 2214/2312 29010G16KT P6SM SCT025 BKN040
     FM221500 31016G23KT P6SM SCT040 FM222300 30008KT P6SM
     SKC=
TAF AMD KAUW 221357Z 2214/2312 32011G17KT P6SM SCT025
     FM222300 30008KT P6SM SKC=
KEAU 221120Z 2212/2312 30008KT P6SM SCT025 FM221600
     32012G21KT P6SM SCT040 SCT250 FM230100 29007KT P6SM
     SKC=
KLSE 221123Z 2211/2312 31009KT P6SM SCT025 TEMPO 2212/2214
     BKN025 FM221600 32012G20KT P6SM SKC FM230000 30008KT
     P6SM SKC=
TAF AMD KDBQ 221306Z 2213/2312 30008KT P6SM BKN009 FM221530
     32012KT P6SM SCT020 FM221700 33017G24KT P6SM SCT035
     FM230000 31007KT P6SM SKC=
TAF TAF AMD KRFD 221413Z 2214/2312 30008KT P6SM BKN015
     BKN025 FM221600 32014G22KT P6SM SCT015 BKN025 FM221800
     32015G24KT P6SM SCT035 FM230100 29007KT P6SM SKC=
KORD 221407Z 2214/2318 26011KT P6SM BKN015 BKN025 FM221600
     29012G18KT P6SM BKN025 FM221800 32014G23KT P6SM SCT030
     FM222000 32012G18KT P6SM FEW040 FM230100 30007KT P6SM
     SKC=